createdAt,value
2023-02-22T00:00:49.974Z,34.00
2023-02-22T00:05:55.317Z,35.58
2023-02-22T00:10:58.533Z,38.13
2023-02-22T00:16:03.457Z,42.85
2023-02-22T00:21:10.521Z,50.95
2023-02-22T00:26:18.148Z,50.78
2023-02-22T00:31:23.453Z,52.90
2023-02-22T00:36:26.300Z,52.67
2023-02-22T00:41:29.583Z,49.95
2023-02-22T00:46:33.740Z,62.95
2023-02-22T00:51:36.740Z,48.90
2023-02-22T00:56:39.601Z,44.38
2023-02-22T01:01:44.019Z,47.28
2023-02-22T01:06:46.759Z,52.90
2023-02-22T01:11:49.961Z,51.15
2023-02-22T01:16:55.224Z,54.33
2023-02-22T01:21:58.839Z,53.95
2023-02-22T01:27:02.550Z,55.60
2023-02-22T01:32:09.453Z,51.88
2023-02-22T01:37:12.482Z,60.30
2023-02-22T01:42:15.249Z,54.50
2023-02-22T01:47:19.335Z,60.83
2023-02-22T01:52:23.972Z,68.47
2023-02-22T01:57:30.220Z,67.35
2023-02-22T02:02:34.373Z,64.68
2023-02-22T02:07:39.763Z,71.10
2023-02-22T02:12:45.465Z,68.40
2023-02-22T02:17:51.537Z,64.03
2023-02-22T02:23:06.175Z,53.42
2023-02-22T02:28:37.070Z,71.88
2023-02-22T02:33:46.960Z,63.70
2023-02-22T02:38:56.651Z,62.40
2023-02-22T02:44:03.480Z,72.82
2023-02-22T02:49:14.207Z,62.25
2023-02-22T02:54:17.823Z,59.80
2023-02-22T02:59:27.115Z,58.10
2023-02-22T03:04:46.038Z,49.05
2023-02-22T03:10:00.571Z,66.60
2023-02-22T03:15:14.547Z,59.22
2023-02-22T03:20:31.547Z,58.35
2023-02-22T03:25:41.290Z,58.42
2023-02-22T03:30:49.913Z,65.65
2023-02-22T03:35:57.747Z,58.55
2023-02-22T03:41:03.772Z,50.15
2023-02-22T03:46:29.301Z,61.63
2023-02-22T03:51:34.344Z,57.53
2023-02-22T03:56:47.352Z,60.85
2023-02-22T04:01:51.093Z,61.10
2023-02-22T04:06:55.785Z,65.80
2023-02-22T04:11:59.463Z,58.55
2023-02-22T04:17:03.709Z,53.28
2023-02-22T04:22:08.656Z,57.72
2023-02-22T04:27:11.563Z,52.67
2023-02-22T04:32:15.297Z,48.08
2023-02-22T04:37:19.815Z,45.97
2023-02-22T04:42:22.658Z,40.08
2023-02-22T04:47:25.956Z,44.67
2023-02-22T04:52:30.221Z,45.15
2023-02-22T04:57:33.559Z,44.10
2023-02-22T05:02:36.632Z,52.92
2023-02-22T05:07:41.064Z,48.00
2023-02-22T05:12:43.873Z,50.55
2023-02-22T05:17:46.806Z,48.97
2023-02-22T05:22:51.990Z,53.22
2023-02-22T05:27:56.340Z,55.45
2023-02-22T05:33:00.206Z,53.55
2023-02-22T05:38:04.772Z,54.47
2023-02-22T05:43:07.724Z,53.38
2023-02-22T05:48:10.453Z,63.58
2023-02-22T05:53:14.657Z,54.58
2023-02-22T05:58:17.508Z,61.97
2023-02-22T06:03:20.332Z,60.80
2023-02-22T06:08:27.009Z,60.35
2023-02-22T06:13:33.353Z,61.05
2023-02-22T06:18:36.116Z,62.78
2023-02-22T06:23:40.321Z,61.20
2023-02-22T06:28:43.045Z,60.38
2023-02-22T06:33:51.450Z,61.85
2023-02-22T06:38:57.239Z,60.22
2023-02-22T06:43:59.996Z,61.25
2023-02-22T06:49:02.698Z,62.67
2023-02-22T06:54:07.120Z,64.22
2023-02-22T06:59:09.904Z,54.53
2023-02-22T07:04:12.623Z,63.92
2023-02-22T07:09:19.903Z,58.85
2023-02-22T07:14:23.216Z,59.40
2023-02-22T07:19:26.037Z,60.67
2023-02-22T07:24:30.244Z,58.95
2023-02-22T07:29:35.960Z,55.80
2023-02-22T07:34:39.446Z,52.15
2023-02-22T07:39:43.807Z,51.42
2023-02-22T07:44:46.821Z,43.55
2023-02-22T07:49:55.537Z,49.67
2023-02-22T07:55:07.177Z,46.72
2023-02-22T08:00:15.152Z,53.25
2023-02-22T08:05:19.061Z,49.25
2023-02-22T08:11:02.767Z,52.88
2023-02-22T08:16:08.020Z,47.42
2023-02-22T08:21:10.730Z,46.65
2023-02-22T08:26:18.437Z,43.45
2023-02-22T08:31:21.415Z,43.67
2023-02-22T08:36:25.013Z,43.58
2023-02-22T08:41:30.602Z,48.63
2023-02-22T08:46:39.393Z,41.60
2023-02-22T08:51:42.327Z,44.65
2023-02-22T08:56:46.756Z,42.17
2023-02-22T09:01:49.802Z,41.15
2023-02-22T09:07:18.521Z,28.98
2023-02-22T09:12:29.625Z,33.20
2023-02-22T09:17:38.046Z,34.47
2023-02-22T09:27:49.717Z,36.95
2023-02-22T09:32:54.116Z,39.92
2023-02-22T09:37:57.610Z,33.28
2023-02-22T09:43:14.006Z,37.50
2023-02-22T09:48:22.334Z,39.30
2023-02-22T09:53:30.393Z,32.85
2023-02-22T09:58:41.890Z,32.35
2023-02-22T10:03:51.592Z,34.28
2023-02-22T10:08:58.134Z,31.75
2023-02-22T10:14:09.234Z,33.75
2023-02-22T10:19:26.548Z,30.73
2023-02-22T10:24:39.704Z,32.45
2023-02-22T10:29:48.662Z,29.17
2023-02-22T10:34:54.486Z,28.52
2023-02-22T10:40:05.829Z,27.20
2023-02-22T10:45:22.800Z,30.95
2023-02-22T10:50:27.559Z,29.33
2023-02-22T10:55:30.406Z,30.23
2023-02-22T11:00:38.238Z,34.10
2023-02-22T11:05:42.154Z,29.77
2023-02-22T11:10:45.084Z,29.67
2023-02-22T11:15:50.515Z,32.10
2023-02-22T11:21:01.964Z,30.88
2023-02-22T11:26:09.700Z,28.00
2023-02-22T11:31:17.571Z,29.77
2023-02-22T11:36:32.708Z,26.52
2023-02-22T11:41:36.159Z,32.78
2023-02-22T11:46:42.816Z,31.98
2023-02-22T11:52:01.003Z,27.05
2023-02-22T11:57:22.165Z,28.83
2023-02-22T12:02:51.808Z,28.15
2023-02-22T12:08:19.743Z,27.00
2023-02-22T12:13:36.780Z,41.22
2023-02-22T12:18:53.417Z,24.38
2023-02-22T12:24:03.281Z,27.95
2023-02-22T12:29:14.464Z,26.67
2023-02-22T12:34:30.373Z,30.33
2023-02-22T12:39:52.823Z,33.58
2023-02-22T12:45:04.079Z,23.08
2023-02-22T12:50:16.022Z,23.80
2023-02-22T12:55:24.984Z,32.80
2023-02-22T13:00:33.127Z,23.92
2023-02-22T13:05:40.438Z,19.38
2023-02-22T13:10:59.043Z,21.52
2023-02-22T13:16:11.697Z,21.95
2023-02-22T13:21:20.996Z,19.00
2023-02-22T13:26:28.886Z,24.52
2023-02-22T13:31:45.366Z,20.42
2023-02-22T13:37:04.135Z,19.77
2023-02-22T13:47:46.679Z,18.50
2023-02-22T13:52:52.720Z,18.55
2023-02-22T13:58:03.343Z,18.63
2023-02-22T14:03:30.024Z,21.10
2023-02-22T14:08:51.997Z,16.00
2023-02-22T14:14:19.127Z,17.45
2023-02-22T14:19:23.776Z,18.17
2023-02-22T14:24:28.126Z,18.27
2023-02-22T14:29:32.042Z,22.70
2023-02-22T14:34:49.742Z,17.35
2023-02-22T14:40:02.138Z,18.60
2023-02-22T14:45:17.059Z,18.20
2023-02-22T14:50:24.821Z,21.88
2023-02-22T14:55:32.437Z,19.50
2023-02-22T15:00:41.166Z,20.13
2023-02-22T15:05:43.924Z,23.58
2023-02-22T15:10:54.280Z,22.30
2023-02-22T15:16:01.892Z,22.98
2023-02-22T15:21:11.002Z,21.90
2023-02-22T15:26:23.815Z,20.77
2023-02-22T15:31:32.563Z,19.67
2023-02-22T15:36:35.403Z,19.33
2023-02-22T15:41:40.575Z,20.83
2023-02-22T15:46:43.387Z,18.52
2023-02-22T15:51:51.583Z,21.20
2023-02-22T15:56:56.632Z,18.52
2023-02-22T16:02:00.484Z,20.35
2023-02-22T16:07:16.800Z,21.30
2023-02-22T16:12:28.231Z,25.58
2023-02-22T16:17:36.868Z,25.67
2023-02-22T16:22:41.021Z,19.58
2023-02-22T16:27:48.285Z,22.88
2023-02-22T16:32:54.066Z,22.60
2023-02-22T16:38:00.296Z,23.05
2023-02-22T16:43:07.457Z,25.02
2023-02-22T16:48:16.167Z,22.20
2023-02-22T16:53:20.896Z,24.10
2023-02-22T16:58:27.851Z,26.20
2023-02-22T17:03:30.642Z,26.20
2023-02-22T17:08:33.380Z,25.42
2023-02-22T17:13:39.395Z,23.58
2023-02-22T17:18:42.122Z,24.67
2023-02-22T17:23:46.108Z,26.67
2023-02-22T17:28:50.625Z,29.35
2023-02-22T17:33:53.470Z,28.52
2023-02-22T17:38:56.624Z,24.00
2023-02-22T17:44:00.738Z,29.80
2023-02-22T17:49:04.236Z,25.48
2023-02-22T17:54:08.265Z,25.95
2023-02-22T17:59:13.179Z,30.17
2023-02-22T18:04:15.941Z,26.00
2023-02-22T18:09:20.275Z,30.23
2023-02-22T18:14:24.877Z,26.92
2023-02-22T18:19:29.478Z,27.83
2023-02-22T18:24:34.500Z,29.10
2023-02-22T18:29:39.486Z,23.75
2023-02-22T18:34:43.556Z,25.10
2023-02-22T18:39:46.538Z,24.98
2023-02-22T18:44:51.115Z,23.13
2023-02-22T18:49:53.999Z,27.73
2023-02-22T18:55:08.865Z,25.20
2023-02-22T19:00:34.340Z,22.42
2023-02-22T19:05:40.765Z,26.48
2023-02-22T19:10:43.622Z,20.50
2023-02-22T19:15:48.921Z,22.48
2023-02-22T19:20:56.774Z,23.30
2023-02-22T19:25:59.546Z,24.50
2023-02-22T19:31:18.477Z,22.33
2023-02-22T19:36:23.946Z,25.98
2023-02-22T19:41:26.704Z,25.10
2023-02-22T19:46:31.082Z,23.00
2023-02-22T19:51:34.389Z,26.25
2023-02-22T19:56:37.252Z,25.67
2023-02-22T20:01:44.207Z,26.27
2023-02-22T20:21:15.738Z,27.13
2023-02-22T20:26:24.150Z,26.58
2023-02-22T20:31:32.388Z,25.08
2023-02-22T20:37:06.784Z,22.48
2023-02-22T20:42:15.586Z,27.48
2023-02-22T20:54:48.359Z,27.60
2023-02-22T21:00:12.690Z,28.55
2023-02-22T21:06:07.271Z,27.83
2023-02-22T21:11:26.163Z,28.52
2023-02-22T21:35:02.436Z,31.23
2023-02-22T21:40:29.678Z,28.52
2023-02-22T21:45:57.228Z,27.88
2023-02-22T21:51:13.889Z,28.35
2023-02-22T21:56:20.198Z,27.00
2023-02-22T22:01:27.145Z,28.77
2023-02-22T22:06:34.373Z,27.77
2023-02-22T22:11:37.329Z,25.83
2023-02-22T22:16:40.453Z,29.60
2023-02-22T22:21:46.582Z,33.95
2023-02-22T22:26:51.066Z,25.90
2023-02-22T22:31:54.469Z,31.98
2023-02-22T22:36:58.999Z,30.40
2023-02-22T22:42:01.851Z,30.33
2023-02-22T22:47:05.881Z,31.00
2023-02-22T22:52:11.385Z,35.63
2023-02-22T22:57:14.614Z,31.73
2023-02-22T23:02:20.487Z,33.55
2023-02-22T23:07:24.616Z,33.40
2023-02-22T23:12:31.467Z,31.58
2023-02-22T23:17:41.175Z,33.28
2023-02-22T23:22:47.235Z,30.58
2023-02-22T23:27:53.096Z,34.75
2023-02-22T23:32:57.437Z,33.00
2023-02-22T23:38:01.712Z,36.97
2023-02-22T23:43:05.758Z,33.13
2023-02-22T23:48:08.498Z,33.65
2023-02-22T23:53:15.237Z,33.75
2023-02-22T23:58:17.970Z,32.65
